Time;durP1;ratioP1;P1;durP2;ratioP2;P2;SDS_P1;SDS_P2;PMS_P1;PMS_P2;Temp;Humidity;BMP_temperature;BMP_pressure;BME280_temperature;BME280_humidity;BME280_pressure;Samples;Min_cycle;Max_cycle;Signal;HPM_P1;HPM_P2
2020/12/31 00:02:13;;;;;;;5.43;4.82;;;5.50;99.90;;;;;;5038425;28;20287;-74
2020/12/31 00:04:40;;;;;;;7.18;5.15;;;5.50;99.90;;;;;;5044442;28;20024;-74
2020/12/31 00:07:06;;;;;;;6.75;5.07;;;5.50;99.90;;;;;;5045637;28;20021;-74
2020/12/31 00:09:34;;;;;;;6.65;5.50;;;5.40;99.90;;;;;;5041641;28;20497;-74
2020/12/31 00:11:59;;;;;;;9.18;5.80;;;5.40;99.90;;;;;;5040021;28;20029;-73
2020/12/31 00:14:25;;;;;;;6.68;5.50;;;5.40;99.90;;;;;;5037015;28;20029;-74
2020/12/31 00:16:50;;;;;;;7.85;5.65;;;5.40;99.90;;;;;;5048569;28;20064;-73
2020/12/31 00:19:16;;;;;;;8.05;6.22;;;5.40;99.90;;;;;;5047990;28;20045;-73
2020/12/31 00:21:42;;;;;;;10.35;5.45;;;5.30;99.90;;;;;;5046148;28;20032;-73
2020/12/31 00:24:08;;;;;;;6.15;4.80;;;5.30;99.90;;;;;;5045489;28;20025;-73
2020/12/31 00:26:34;;;;;;;6.38;5.43;;;5.20;99.90;;;;;;5046419;28;20041;-73
2020/12/31 00:29:00;;;;;;;6.00;5.15;;;5.30;99.90;;;;;;5048130;28;20024;-73
2020/12/31 00:31:25;;;;;;;7.95;5.15;;;5.30;99.90;;;;;;5046845;28;20045;-74
2020/12/31 00:33:51;;;;;;;9.25;5.63;;;5.20;99.90;;;;;;5050718;28;20462;-74
2020/12/31 00:36:17;;;;;;;6.57;5.03;;;5.20;99.90;;;;;;5047568;28;20037;-74
2020/12/31 00:38:43;;;;;;;7.45;5.30;;;5.30;99.90;;;;;;5045846;28;20064;-74
2020/12/31 00:41:08;;;;;;;7.70;5.60;;;5.20;99.90;;;;;;5040745;28;20481;-73
2020/12/31 00:43:34;;;;;;;7.72;4.78;;;5.20;99.90;;;;;;5044815;28;20389;-73
2020/12/31 00:46:00;;;;;;;6.25;4.43;;;5.20;99.90;;;;;;5045677;28;20377;-74
2020/12/31 00:48:26;;;;;;;5.03;4.25;;;5.20;99.90;;;;;;5046779;28;20030;-74
2020/12/31 00:50:52;;;;;;;5.47;4.95;;;5.30;99.90;;;;;;5049517;28;20087;-75
2020/12/31 00:53:17;;;;;;;8.68;6.15;;;5.30;99.90;;;;;;5050340;28;20035;-74
2020/12/31 00:55:43;;;;;;;10.32;6.57;;;5.30;99.90;;;;;;5044937;28;20033;-75
2020/12/31 00:58:09;;;;;;;7.55;5.78;;;5.20;99.90;;;;;;5043205;28;20021;-74
2020/12/31 01:00:35;;;;;;;9.90;5.97;;;5.20;99.90;;;;;;5046784;28;20032;-74
2020/12/31 01:03:03;;;;;;;8.98;6.25;;;5.20;99.90;;;;;;5043619;28;20021;-74
2020/12/31 01:05:29;;;;;;;9.73;5.65;;;5.30;99.90;;;;;;5041873;28;20108;-74
2020/12/31 01:07:54;;;;;;;8.55;6.57;;;5.20;99.90;;;;;;5050415;28;20550;-73
2020/12/31 01:10:20;;;;;;;7.32;5.35;;;5.30;99.90;;;;;;5045927;28;20033;-73
2020/12/31 01:12:46;;;;;;;6.47;5.50;;;5.20;99.90;;;;;;5043114;28;20033;-74
2020/12/31 01:15:12;;;;;;;10.02;6.13;;;5.30;99.90;;;;;;5040408;28;20117;-74
2020/12/31 01:17:37;;;;;;;5.20;4.70;;;5.30;99.90;;;;;;5045722;28;20060;-74
2020/12/31 01:20:05;;;;;;;6.38;5.15;;;5.30;99.90;;;;;;5043458;28;20053;-74
2020/12/31 01:22:30;;;;;;;8.23;5.30;;;5.30;99.90;;;;;;5046930;28;20025;-73
2020/12/31 01:24:56;;;;;;;5.88;5.18;;;5.30;99.90;;;;;;5049712;28;20036;-73
2020/12/31 01:27:22;;;;;;;7.35;4.88;;;5.30;99.90;;;;;;5043017;28;20021;-74
2020/12/31 01:29:47;;;;;;;7.45;5.00;;;5.40;99.90;;;;;;5047218;28;20067;-73
2020/12/31 01:32:13;;;;;;;6.20;4.55;;;5.30;99.90;;;;;;5043843;28;20026;-74
2020/12/31 01:34:39;;;;;;;12.00;4.93;;;5.30;99.90;;;;;;5044793;28;20128;-74
2020/12/31 01:37:04;;;;;;;7.35;5.03;;;5.30;99.90;;;;;;5040007;28;20477;-74
2020/12/31 01:39:30;;;;;;;9.32;5.00;;;5.30;99.90;;;;;;5046655;28;20029;-73
2020/12/31 01:42:05;;;;;;;5.63;3.83;;;5.30;99.90;;;;;;5049555;28;20039;-73
2020/12/31 01:44:31;;;;;;;6.20;4.00;;;5.30;99.90;;;;;;5043251;28;20033;-75
2020/12/31 01:47:00;;;;;;;7.05;4.07;;;5.30;99.90;;;;;;5039718;28;20025;-73
2020/12/31 01:49:31;;;;;;;5.47;3.95;;;5.30;99.90;;;;;;5045669;28;20055;-73
2020/12/31 01:51:58;;;;;;;5.28;4.00;;;5.30;99.90;;;;;;5044590;28;20036;-73
2020/12/31 01:54:25;;;;;;;6.65;4.30;;;5.30;99.90;;;;;;5046554;28;20029;-75
2020/12/31 01:56:54;;;;;;;6.18;4.30;;;5.40;99.90;;;;;;5045914;28;20028;-75
2020/12/31 01:59:19;;;;;;;5.60;4.55;;;5.30;99.90;;;;;;5049440;28;20049;-76
2020/12/31 02:01:47;;;;;;;7.70;4.93;;;5.30;99.90;;;;;;5042996;28;20477;-75
2020/12/31 02:04:13;;;;;;;9.93;5.80;;;5.30;99.90;;;;;;5041621;28;20540;-75
2020/12/31 02:06:38;;;;;;;8.00;5.55;;;5.40;99.90;;;;;;5049329;28;20029;-75
2020/12/31 02:09:05;;;;;;;7.00;5.70;;;5.30;99.90;;;;;;5051398;28;20032;-75
2020/12/31 02:11:30;;;;;;;6.57;5.03;;;5.30;99.90;;;;;;5043024;28;20478;-75
2020/12/31 02:13:56;;;;;;;7.55;5.38;;;5.40;99.90;;;;;;5046977;28;20029;-75
2020/12/31 02:16:26;;;;;;;7.72;5.60;;;5.40;99.90;;;;;;5041011;28;20029;-75
2020/12/31 02:19:04;;;;;;;5.78;5.15;;;5.40;99.90;;;;;;5047493;28;20017;-74
2020/12/31 02:21:50;;;;;;;6.72;5.50;;;5.40;99.90;;;;;;5041480;28;20107;-74
2020/12/31 02:24:18;;;;;;;8.57;5.50;;;5.40;99.90;;;;;;5053948;28;20047;-75
2020/12/31 02:26:46;;;;;;;9.25;4.80;;;5.40;99.90;;;;;;5048733;28;20112;-74
2020/12/31 02:29:13;;;;;;;7.70;4.82;;;5.40;99.90;;;;;;5046995;28;20045;-74
2020/12/31 02:31:41;;;;;;;5.85;4.70;;;5.40;99.90;;;;;;5054223;28;20036;-74
2020/12/31 02:34:07;;;;;;;7.15;5.53;;;5.30;99.90;;;;;;5051826;28;20100;-74
2020/12/31 02:36:36;;;;;;;11.00;5.78;;;5.30;99.90;;;;;;5047597;28;20033;-75
2020/12/31 02:39:07;;;;;;;9.75;5.32;;;5.40;99.90;;;;;;5048331;28;20025;-75
2020/12/31 02:41:33;;;;;;;7.85;5.43;;;5.40;99.90;;;;;;5048924;28;20024;-75
2020/12/31 02:44:00;;;;;;;5.68;5.05;;;5.40;99.90;;;;;;5045808;28;20032;-75
2020/12/31 02:46:26;;;;;;;9.68;5.47;;;5.40;99.90;;;;;;5047946;28;20136;-75
2020/12/31 02:48:52;;;;;;;9.20;5.13;;;5.40;99.90;;;;;;5047918;28;20124;-76
2020/12/31 02:51:18;;;;;;;4.85;4.32;;;5.40;99.90;;;;;;5051244;28;20033;-75
2020/12/31 02:53:44;;;;;;;6.78;5.03;;;5.40;99.90;;;;;;5047465;28;20025;-75
2020/12/31 02:56:12;;;;;;;6.90;4.68;;;5.40;99.90;;;;;;5047377;28;20478;-75
2020/12/31 02:58:38;;;;;;;8.32;5.43;;;5.40;99.90;;;;;;5050646;28;20025;-75
2020/12/31 03:01:05;;;;;;;8.45;5.15;;;5.40;99.90;;;;;;5050531;28;20044;-75
2020/12/31 03:03:30;;;;;;;11.82;6.53;;;5.30;99.90;;;;;;5046432;28;20448;-74
2020/12/31 03:05:56;;;;;;;8.38;5.93;;;5.30;99.90;;;;;;5049652;28;20534;-76
2020/12/31 03:08:22;;;;;;;8.80;5.80;;;5.30;99.90;;;;;;5052188;28;20056;-75
2020/12/31 03:10:48;;;;;;;8.40;6.35;;;5.30;99.90;;;;;;5051907;28;20052;-76
2020/12/31 03:13:13;;;;;;;11.05;6.40;;;5.30;99.90;;;;;;5052234;28;20072;-75
2020/12/31 03:15:39;;;;;;;16.60;7.22;;;5.20;99.90;;;;;;5047290;28;20409;-75
2020/12/31 03:18:05;;;;;;;10.25;7.43;;;5.30;99.90;;;;;;5049150;28;20029;-75
2020/12/31 03:20:30;;;;;;;11.43;6.85;;;5.20;99.90;;;;;;5046154;28;20082;-75
2020/12/31 03:22:56;;;;;;;10.25;6.80;;;5.30;99.90;;;;;;5049474;28;20493;-75
2020/12/31 03:25:22;;;;;;;8.30;6.05;;;5.20;99.90;;;;;;5048593;28;20045;-75
2020/12/31 03:27:47;;;;;;;7.88;5.93;;;5.20;99.90;;;;;;5047354;28;20033;-75
2020/12/31 03:30:14;;;;;;;7.65;5.95;;;5.20;99.90;;;;;;5049622;28;20485;-75
2020/12/31 03:32:39;;;;;;;12.57;6.50;;;5.20;99.90;;;;;;5046982;28;20025;-75
2020/12/31 03:35:05;;;;;;;10.23;6.03;;;5.20;99.90;;;;;;5051047;28;20740;-74
2020/12/31 03:37:30;;;;;;;12.43;6.28;;;5.10;99.90;;;;;;5044824;28;20029;-75
2020/12/31 03:39:56;;;;;;;10.48;6.00;;;5.10;99.90;;;;;;5048343;28;20057;-75
2020/12/31 03:42:22;;;;;;;10.85;6.10;;;5.10;99.90;;;;;;5052698;28;20543;-75
2020/12/31 03:44:47;;;;;;;11.02;6.80;;;5.10;99.90;;;;;;5043677;28;20048;-75
2020/12/31 03:47:13;;;;;;;11.05;5.55;;;5.10;99.90;;;;;;5049686;28;20021;-75
2020/12/31 03:49:39;;;;;;;7.57;6.18;;;5.10;99.90;;;;;;5051166;28;20393;-75
2020/12/31 03:52:05;;;;;;;10.13;6.03;;;5.10;99.90;;;;;;5049234;28;20029;-74
2020/12/31 03:54:31;;;;;;;10.82;6.28;;;5.10;99.90;;;;;;5050749;28;20139;-75
2020/12/31 03:56:56;;;;;;;9.88;6.35;;;5.10;99.90;;;;;;5047355;28;20564;-75
2020/12/31 03:59:22;;;;;;;8.95;6.70;;;5.10;99.90;;;;;;5049285;28;20020;-75
2020/12/31 04:01:48;;;;;;;19.23;7.65;;;5.00;99.90;;;;;;5052751;28;20143;-75
2020/12/31 04:04:14;;;;;;;13.68;7.60;;;5.00;99.90;;;;;;5046466;28;20096;-75
2020/12/31 04:06:39;;;;;;;14.65;7.20;;;5.00;99.90;;;;;;5047042;28;20477;-75
2020/12/31 04:09:05;;;;;;;9.23;6.85;;;5.00;99.90;;;;;;5050962;28;20021;-75
2020/12/31 04:11:31;;;;;;;13.10;6.82;;;5.00;99.90;;;;;;5047062;28;20037;-76
2020/12/31 04:13:56;;;;;;;12.60;7.88;;;5.00;99.90;;;;;;5043548;28;20025;-75
2020/12/31 04:16:22;;;;;;;10.63;6.93;;;5.00;99.90;;;;;;5037607;28;20033;-75
2020/12/31 04:18:47;;;;;;;11.27;6.57;;;5.00;99.90;;;;;;5046982;28;20017;-75
2020/12/31 04:21:14;;;;;;;14.27;7.10;;;5.00;99.90;;;;;;5048164;28;20025;-75
2020/12/31 04:23:40;;;;;;;12.90;7.32;;;4.90;99.90;;;;;;5049499;28;20021;-75
2020/12/31 04:26:10;;;;;;;13.70;6.95;;;4.90;99.90;;;;;;5049034;28;20031;-75
2020/12/31 04:28:37;;;;;;;13.73;6.80;;;4.90;99.90;;;;;;5049200;28;20481;-75
2020/12/31 04:31:03;;;;;;;14.35;6.68;;;4.90;99.90;;;;;;5043886;28;20032;-75
2020/12/31 04:33:28;;;;;;;12.13;6.53;;;5.00;99.90;;;;;;5048939;28;20082;-75
2020/12/31 04:35:54;;;;;;;9.38;6.63;;;5.00;99.90;;;;;;5059061;28;20056;-75
2020/12/31 04:38:20;;;;;;;14.40;7.78;;;5.00;99.90;;;;;;5043682;28;20028;-75
2020/12/31 04:40:45;;;;;;;11.73;7.00;;;5.00;99.90;;;;;;5048043;28;20067;-75
2020/12/31 04:43:11;;;;;;;10.07;6.20;;;4.90;99.90;;;;;;5046287;28;20355;-75
2020/12/31 04:45:39;;;;;;;14.25;7.50;;;4.90;99.90;;;;;;5046744;28;20040;-75
2020/12/31 04:48:25;;;;;;;15.95;8.13;;;4.90;99.90;;;;;;5048126;28;20021;-75
2020/12/31 04:50:57;;;;;;;13.38;7.65;;;4.90;99.90;;;;;;5043203;28;20057;-75
2020/12/31 04:53:24;;;;;;;16.37;7.80;;;4.90;99.90;;;;;;5048470;28;20071;-75
2020/12/31 04:55:50;;;;;;;12.65;7.20;;;4.90;99.90;;;;;;5043084;28;20029;-75
2020/12/31 04:58:16;;;;;;;13.05;7.53;;;4.90;99.90;;;;;;5050115;28;20033;-75
2020/12/31 05:00:43;;;;;;;14.23;7.25;;;4.80;99.90;;;;;;5048513;28;20032;-74
2020/12/31 05:03:10;;;;;;;16.33;8.60;;;4.80;99.90;;;;;;5050062;28;20029;-74
2020/12/31 05:05:37;;;;;;;14.48;7.78;;;4.80;99.90;;;;;;5041282;28;20051;-74
2020/12/31 05:08:04;;;;;;;13.50;7.75;;;4.80;99.90;;;;;;5047252;28;20021;-74
2020/12/31 05:10:30;;;;;;;15.30;7.90;;;4.70;99.90;;;;;;5051087;28;20055;-74
2020/12/31 05:13:04;;;;;;;15.38;8.13;;;4.80;99.90;;;;;;5048946;28;20116;-75
2020/12/31 05:15:41;;;;;;;15.30;7.78;;;4.70;99.90;;;;;;5046356;28;20033;-74
2020/12/31 05:18:23;;;;;;;13.38;7.68;;;4.70;99.90;;;;;;5045483;28;20072;-74
2020/12/31 05:20:54;;;;;;;15.88;8.55;;;4.80;99.90;;;;;;5045673;28;20060;-74
2020/12/31 05:23:27;;;;;;;11.45;7.55;;;4.70;99.90;;;;;;5039064;28;20033;-74
2020/12/31 05:25:54;;;;;;;13.02;7.97;;;4.70;99.90;;;;;;5050202;28;20035;-75
2020/12/31 05:28:30;;;;;;;13.18;8.25;;;4.70;99.90;;;;;;5043700;28;20022;-74
2020/12/31 05:31:07;;;;;;;15.63;8.90;;;4.70;99.90;;;;;;5046787;28;20029;-74
2020/12/31 05:33:36;;;;;;;16.30;8.95;;;4.70;99.90;;;;;;5047477;28;20036;-74
2020/12/31 05:36:11;;;;;;;17.63;9.63;;;4.70;99.90;;;;;;5049950;28;20535;-73
2020/12/31 05:38:36;;;;;;;16.80;9.48;;;4.70;99.90;;;;;;5043419;28;20025;-74
2020/12/31 05:41:03;;;;;;;19.95;9.55;;;4.70;99.90;;;;;;5064981;28;20033;-74
2020/12/31 05:43:28;;;;;;;23.25;10.27;;;4.80;99.90;;;;;;5045502;28;20030;-74
2020/12/31 05:46:04;;;;;;;18.67;10.05;;;4.70;99.90;;;;;;5044919;28;20032;-75
2020/12/31 05:48:29;;;;;;;23.70;11.23;;;4.70;99.90;;;;;;5049486;28;20029;-74
2020/12/31 05:50:55;;;;;;;25.17;10.63;;;4.60;99.90;;;;;;5049548;28;20029;-74
2020/12/31 05:53:24;;;;;;;18.65;11.10;;;4.60;99.90;;;;;;5044215;28;20032;-74
2020/12/31 05:55:55;;;;;;;17.77;10.65;;;4.60;99.90;;;;;;5043911;28;20405;-74
2020/12/31 05:58:26;;;;;;;24.08;11.80;;;4.60;99.90;;;;;;5050767;28;20021;-74
2020/12/31 06:01:12;;;;;;;15.93;10.07;;;4.60;99.90;;;;;;5049150;28;20239;-73
2020/12/31 06:03:46;;;;;;;20.65;10.80;;;4.50;99.90;;;;;;5043629;28;20183;-74
2020/12/31 06:06:17;;;;;;;20.27;10.32;;;4.50;99.90;;;;;;5052200;28;20033;-74
2020/12/31 06:08:57;;;;;;;15.73;9.95;;;4.50;99.90;;;;;;5053201;28;20154;-74
2020/12/31 06:11:31;;;;;;;19.88;9.95;;;4.40;99.90;;;;;;5048649;28;20473;-74
2020/12/31 06:13:57;;;;;;;18.73;10.05;;;4.50;99.90;;;;;;5047126;28;20013;-74
2020/12/31 06:16:27;;;;;;;21.75;10.88;;;4.50;99.90;;;;;;5049091;28;20033;-74
2020/12/31 06:19:00;;;;;;;18.60;10.30;;;4.50;99.90;;;;;;5051904;28;20484;-74
2020/12/31 06:21:39;;;;;;;17.45;10.20;;;4.50;99.90;;;;;;5039966;28;20033;-74
2020/12/31 06:24:11;;;;;;;15.73;10.15;;;4.60;99.90;;;;;;5045279;28;20357;-74
2020/12/31 06:26:39;;;;;;;16.35;10.88;;;4.50;99.90;;;;;;5050319;28;20032;-74
2020/12/31 06:29:06;;;;;;;20.88;10.48;;;4.50;99.90;;;;;;5047554;28;20450;-74
2020/12/31 06:31:31;;;;;;;19.92;11.30;;;4.50;99.90;;;;;;5039134;28;20041;-75
2020/12/31 06:33:58;;;;;;;20.25;11.40;;;4.50;99.90;;;;;;5050494;28;20104;-74
2020/12/31 06:36:24;;;;;;;22.27;11.70;;;4.50;99.90;;;;;;5045724;28;20476;-74
2020/12/31 06:38:51;;;;;;;21.77;11.40;;;4.50;99.90;;;;;;5041453;28;20094;-74
2020/12/31 06:41:52;;;;;;;19.92;11.45;;;4.50;99.90;;;;;;5052528;28;20056;-73
2020/12/31 06:44:20;;;;;;;17.90;10.80;;;4.50;99.90;;;;;;5050182;28;20040;-73
2020/12/31 06:46:47;;;;;;;24.85;12.13;;;4.50;99.90;;;;;;5048401;28;20367;-74
2020/12/31 06:49:14;;;;;;;22.83;12.95;;;4.40;99.90;;;;;;5045673;28;20022;-74
2020/12/31 06:51:40;;;;;;;20.23;11.45;;;4.40;99.90;;;;;;5046181;28;20038;-74
2020/12/31 06:54:06;;;;;;;19.85;11.45;;;4.40;99.90;;;;;;5054369;28;20104;-74
2020/12/31 06:56:48;;;;;;;19.63;11.27;;;4.40;99.90;;;;;;5047496;28;20060;-73
2020/12/31 06:59:25;;;;;;;18.83;11.35;;;4.40;99.90;;;;;;5043847;28;20017;-74
2020/12/31 07:01:51;;;;;;;17.55;11.50;;;4.50;99.90;;;;;;5043117;28;20104;-74
2020/12/31 07:04:30;;;;;;;19.02;11.40;;;4.50;99.90;;;;;;5045944;28;20101;-75
2020/12/31 07:06:56;;;;;;;18.90;10.88;;;4.40;99.90;;;;;;5047510;28;20029;-73
2020/12/31 07:09:32;;;;;;;17.25;10.32;;;4.50;99.90;;;;;;5047897;28;20056;-74
2020/12/31 07:12:03;;;;;;;20.00;11.50;;;4.50;99.90;;;;;;5043919;28;20061;-74
2020/12/31 07:14:31;;;;;;;22.42;11.80;;;4.50;99.90;;;;;;5042182;28;20421;-74
2020/12/31 07:17:07;;;;;;;23.58;12.30;;;4.50;99.90;;;;;;5044921;28;20078;-74
2020/12/31 07:19:35;;;;;;;29.45;13.77;;;4.50;99.90;;;;;;5048003;28;20104;-73
2020/12/31 07:22:14;;;;;;;23.67;11.63;;;4.40;99.90;;;;;;5045947;28;20435;-74
2020/12/31 07:24:48;;;;;;;17.50;10.48;;;4.50;99.90;;;;;;5050447;28;20057;-73
2020/12/31 07:27:27;;;;;;;21.55;11.65;;;4.50;99.90;;;;;;5041432;28;20033;-73
2020/12/31 07:30:03;;;;;;;22.55;11.70;;;4.50;99.90;;;;;;5045557;28;20025;-73
2020/12/31 07:32:59;;;;;;;20.65;11.20;;;4.50;99.90;;;;;;5038233;28;20080;-73
2020/12/31 07:35:41;;;;;;;20.90;11.48;;;4.40;99.90;;;;;;5046107;28;20021;-74
2020/12/31 07:38:16;;;;;;;19.90;10.88;;;4.50;99.90;;;;;;5043664;28;20028;-73
2020/12/31 07:40:42;;;;;;;18.50;10.93;;;4.50;99.90;;;;;;5047739;28;20470;-73
2020/12/31 07:43:12;;;;;;;20.90;11.48;;;4.50;99.90;;;;;;5047086;28;20028;-73
2020/12/31 07:45:38;;;;;;;25.40;11.75;;;4.50;99.90;;;;;;5037947;28;20041;-73
2020/12/31 07:48:04;;;;;;;20.50;10.75;;;4.40;99.90;;;;;;5038056;28;20437;-72
2020/12/31 07:50:30;;;;;;;20.50;11.75;;;4.50;99.90;;;;;;5040334;28;20079;-73
2020/12/31 07:52:58;;;;;;;20.48;11.85;;;4.50;99.90;;;;;;5045739;28;20026;-72
2020/12/31 07:55:24;;;;;;;23.25;10.65;;;4.50;99.90;;;;;;5043863;28;20055;-72
2020/12/31 07:57:50;;;;;;;24.17;12.15;;;4.50;99.90;;;;;;5052429;28;20465;-72
2020/12/31 08:00:18;;;;;;;23.30;12.25;;;4.50;99.90;;;;;;5048471;28;20108;-72
2020/12/31 08:02:49;;;;;;;18.23;11.35;;;4.60;99.90;;;;;;5045835;28;20025;-72
2020/12/31 08:05:16;;;;;;;18.77;11.75;;;4.50;99.90;;;;;;5050160;28;20354;-73
2020/12/31 08:07:42;;;;;;;19.60;12.10;;;4.50;99.90;;;;;;5052032;28;20017;-75
2020/12/31 08:10:09;;;;;;;16.92;10.80;;;4.60;99.90;;;;;;5050415;28;20044;-73
2020/12/31 08:12:38;;;;;;;18.73;11.65;;;4.60;99.90;;;;;;5047354;28;20033;-74
2020/12/31 08:15:04;;;;;;;22.70;11.77;;;4.60;99.90;;;;;;5039042;28;20100;-73
2020/12/31 08:17:30;;;;;;;21.23;11.05;;;4.60;99.90;;;;;;5046611;28;20025;-73
2020/12/31 08:19:56;;;;;;;19.63;10.50;;;4.60;99.90;;;;;;5047502;28;20079;-73
2020/12/31 08:22:22;;;;;;;27.20;12.95;;;4.60;99.90;;;;;;5046699;28;20021;-72
2020/12/31 08:25:18;;;;;;;25.55;13.10;;;4.60;99.90;;;;;;5048922;28;20363;-74
2020/12/31 08:27:46;;;;;;;27.50;13.38;;;4.50;99.90;;;;;;5032125;28;20041;-73
2020/12/31 08:30:12;;;;;;;27.10;13.43;;;4.50;99.90;;;;;;5041156;28;20135;-74
2020/12/31 08:32:52;;;;;;;21.88;12.57;;;4.50;99.90;;;;;;5048509;28;20041;-77
2020/12/31 08:35:21;;;;;;;19.40;11.15;;;4.50;99.90;;;;;;5044490;28;20021;-74
2020/12/31 08:38:07;;;;;;;21.83;11.90;;;4.50;99.90;;;;;;5047997;28;20024;-73
2020/12/31 08:40:43;;;;;;;24.27;12.98;;;4.60;99.90;;;;;;5048162;28;20383;-72
2020/12/31 08:43:18;;;;;;;22.48;12.88;;;4.60;99.90;;;;;;5045741;28;20025;-73
2020/12/31 08:45:44;;;;;;;28.08;13.55;;;4.60;99.90;;;;;;5045771;28;20021;-72
2020/12/31 08:48:36;;;;;;;33.45;15.85;;;4.50;99.90;;;;;;5050349;28;20064;-73
2020/12/31 08:51:09;;;;;;;35.27;15.93;;;4.50;99.90;;;;;;5041263;28;20049;-73
2020/12/31 08:53:51;;;;;;;36.92;16.50;;;4.60;99.90;;;;;;5044943;28;20613;-73
2020/12/31 08:56:18;;;;;;;34.58;16.38;;;4.60;99.90;;;;;;5042121;28;20061;-73
2020/12/31 08:58:43;;;;;;;35.45;16.20;;;4.60;99.90;;;;;;5042590;28;20032;-72
2020/12/31 09:01:23;;;;;;;37.33;17.08;;;4.70;99.90;;;;;;5033990;28;20033;-73
2020/12/31 09:03:49;;;;;;;37.83;17.60;;;4.70;99.90;;;;;;5047297;28;20029;-73
2020/12/31 09:06:26;;;;;;;38.50;16.48;;;4.60;99.90;;;;;;5050096;28;20029;-73
2020/12/31 09:08:52;;;;;;;33.40;16.20;;;4.70;99.90;;;;;;5047812;28;20025;-74
2020/12/31 09:11:28;;;;;;;31.95;15.68;;;4.80;99.90;;;;;;5053473;28;20387;-73
2020/12/31 09:13:54;;;;;;;30.63;15.95;;;4.80;99.90;;;;;;5045513;28;20113;-74
2020/12/31 09:16:27;;;;;;;39.33;18.67;;;4.80;99.90;;;;;;5043500;28;20029;-74
2020/12/31 09:18:58;;;;;;;39.95;18.95;;;4.80;99.90;;;;;;5039916;28;20013;-73
2020/12/31 09:21:28;;;;;;;39.85;18.42;;;4.80;99.90;;;;;;5051143;28;20457;-73
2020/12/31 09:23:53;;;;;;;39.00;17.42;;;4.90;99.90;;;;;;5051077;28;20028;-73
2020/12/31 09:26:26;;;;;;;35.63;17.15;;;4.80;99.90;;;;;;5047945;28;20493;-73
2020/12/31 09:28:53;;;;;;;37.08;19.17;;;4.90;99.90;;;;;;5047448;28;20041;-73
2020/12/31 09:31:22;;;;;;;36.03;17.45;;;4.90;99.90;;;;;;5040737;28;20048;-73
2020/12/31 09:33:49;;;;;;;34.67;17.52;;;5.00;99.90;;;;;;5051912;28;20060;-74
2020/12/31 09:36:25;;;;;;;41.00;17.70;;;5.00;99.90;;;;;;5052041;28;20021;-73
2020/12/31 09:38:51;;;;;;;46.38;19.63;;;5.00;99.90;;;;;;5053300;28;20024;-74
2020/12/31 09:41:17;;;;;;;41.33;18.75;;;5.00;99.90;;;;;;5057068;28;20365;-73
2020/12/31 09:43:43;;;;;;;39.22;17.92;;;5.00;99.90;;;;;;5058383;28;20040;-73
2020/12/31 09:46:09;;;;;;;41.97;20.05;;;5.00;99.90;;;;;;5044914;28;20409;-73
2020/12/31 09:48:36;;;;;;;39.53;18.38;;;5.00;99.90;;;;;;5043648;28;20032;-73
2020/12/31 09:51:02;;;;;;;41.42;19.52;;;4.90;99.90;;;;;;5049059;28;20067;-73
2020/12/31 09:53:28;;;;;;;47.90;20.60;;;4.90;99.90;;;;;;5039743;28;20021;-73
2020/12/31 09:55:53;;;;;;;40.03;19.88;;;5.00;99.90;;;;;;5038630;28;20148;-73
2020/12/31 09:58:19;;;;;;;41.97;19.92;;;5.00;99.90;;;;;;5040288;28;20017;-74
2020/12/31 10:00:45;;;;;;;45.03;20.20;;;5.10;99.90;;;;;;5045954;28;20059;-76
2020/12/31 10:03:11;;;;;;;40.75;19.65;;;5.10;99.90;;;;;;5041786;28;20029;-76
2020/12/31 10:05:36;;;;;;;42.22;19.73;;;5.10;99.90;;;;;;5042709;28;20490;-75
2020/12/31 10:08:02;;;;;;;51.40;20.90;;;5.20;99.90;;;;;;5042346;28;20018;-78
2020/12/31 10:10:28;;;;;;;49.47;21.73;;;5.30;99.90;;;;;;5043042;28;20040;-77
2020/12/31 10:12:54;;;;;;;39.80;19.45;;;5.30;99.90;;;;;;5046748;28;20025;-74
2020/12/31 10:15:19;;;;;;;40.50;18.98;;;5.30;99.90;;;;;;5049942;28;20469;-75
2020/12/31 10:17:45;;;;;;;43.10;20.98;;;5.30;99.90;;;;;;5046278;28;20022;-72
2020/12/31 10:20:10;;;;;;;39.38;19.30;;;5.30;99.90;;;;;;5041365;28;20673;-74
2020/12/31 10:22:36;;;;;;;38.28;19.52;;;5.30;99.90;;;;;;5048284;28;20025;-79
2020/12/31 10:25:03;;;;;;;40.67;18.95;;;5.40;99.90;;;;;;5047365;28;20021;-75
2020/12/31 10:27:28;;;;;;;40.25;18.92;;;5.40;99.90;;;;;;5046154;28;20021;-72
2020/12/31 10:29:54;;;;;;;37.38;18.30;;;5.40;99.90;;;;;;5049176;28;20036;-73
2020/12/31 10:32:19;;;;;;;40.03;17.98;;;5.40;99.90;;;;;;5041301;28;20026;-75
2020/12/31 10:34:45;;;;;;;37.67;17.95;;;5.40;99.90;;;;;;5045792;28;20043;-73
2020/12/31 10:37:11;;;;;;;42.55;18.45;;;5.40;99.90;;;;;;5048084;28;20033;-76
2020/12/31 10:39:36;;;;;;;38.90;18.27;;;5.40;99.90;;;;;;5041237;28;20025;-76
2020/12/31 10:42:02;;;;;;;35.53;16.23;;;5.40;99.90;;;;;;5040219;28;20371;-78
2020/12/31 10:44:28;;;;;;;37.70;18.17;;;5.40;99.90;;;;;;5042039;28;20040;-77
2020/12/31 10:46:55;;;;;;;30.58;17.05;;;5.40;99.90;;;;;;5047744;28;20032;-76
2020/12/31 10:49:23;;;;;;;35.15;17.38;;;5.40;99.90;;;;;;5047837;28;20012;-74
2020/12/31 10:51:49;;;;;;;35.10;17.55;;;5.50;99.90;;;;;;5050061;28;20095;-77
2020/12/31 10:54:14;;;;;;;33.65;16.40;;;5.50;99.90;;;;;;5054304;28;20033;-77
2020/12/31 10:56:40;;;;;;;29.50;15.43;;;5.50;99.90;;;;;;5050912;28;20465;-77
2020/12/31 10:59:06;;;;;;;31.58;16.02;;;5.60;99.90;;;;;;5058533;28;20055;-77
2020/12/31 11:01:31;;;;;;;31.63;16.35;;;5.60;99.90;;;;;;5051929;28;20032;-74
2020/12/31 11:03:57;;;;;;;29.92;15.75;;;5.60;99.90;;;;;;5043186;28;20026;-76
2020/12/31 11:06:25;;;;;;;28.90;14.93;;;5.50;99.90;;;;;;5048974;28;20120;-77
2020/12/31 11:08:52;;;;;;;24.48;13.98;;;5.60;99.90;;;;;;5053874;28;20028;-79
2020/12/31 11:11:23;;;;;;;26.65;14.93;;;5.60;99.90;;;;;;5051965;28;20363;-76
2020/12/31 11:13:49;;;;;;;30.30;15.07;;;5.60;99.90;;;;;;5040321;28;20134;-75
2020/12/31 11:16:15;;;;;;;31.38;16.20;;;5.60;99.90;;;;;;5048788;28;20025;-75
2020/12/31 11:18:42;;;;;;;29.65;14.95;;;5.50;99.90;;;;;;5036806;28;20106;-76
2020/12/31 11:21:09;;;;;;;23.60;13.63;;;5.60;99.90;;;;;;5046943;28;20032;-77
2020/12/31 11:23:35;;;;;;;25.83;13.65;;;5.60;99.90;;;;;;5048212;28;20078;-72
2020/12/31 11:26:00;;;;;;;24.48;13.13;;;5.70;99.90;;;;;;5047220;28;20083;-77
2020/12/31 11:28:26;;;;;;;24.60;12.93;;;5.70;99.90;;;;;;5049858;28;20026;-77
2020/12/31 11:30:52;;;;;;;24.23;13.90;;;5.60;99.90;;;;;;5050023;28;20048;-74
2020/12/31 11:33:18;;;;;;;24.50;13.82;;;5.70;99.90;;;;;;5037912;28;20042;-73
2020/12/31 11:35:44;;;;;;;26.75;13.45;;;5.60;99.90;;;;;;5042188;28;20031;-74
2020/12/31 11:38:10;;;;;;;23.95;12.88;;;5.60;99.90;;;;;;5038442;28;20041;-78
2020/12/31 11:40:36;;;;;;;23.80;13.27;;;5.70;99.90;;;;;;5039837;28;20113;-74
2020/12/31 11:43:02;;;;;;;22.85;13.13;;;5.60;99.90;;;;;;5043587;28;20055;-78
2020/12/31 11:45:28;;;;;;;22.80;12.68;;;5.60;99.90;;;;;;5039159;28;20025;-79
2020/12/31 11:47:53;;;;;;;24.80;12.35;;;5.60;99.90;;;;;;5038170;28;20032;-78
2020/12/31 11:50:19;;;;;;;17.58;10.52;;;5.70;99.90;;;;;;5037337;28;20026;-78
2020/12/31 11:52:45;;;;;;;18.58;10.55;;;5.70;99.90;;;;;;5038334;28;20033;-75
2020/12/31 11:55:11;;;;;;;16.63;9.27;;;5.70;99.90;;;;;;5042935;28;20053;-77
2020/12/31 11:57:37;;;;;;;15.65;9.27;;;5.80;99.90;;;;;;5044881;28;20023;-78
2020/12/31 12:00:03;;;;;;;14.85;9.38;;;5.80;99.90;;;;;;5043043;28;20040;-77
2020/12/31 12:02:28;;;;;;;15.25;9.05;;;5.80;99.90;;;;;;5045623;28;20029;-74
2020/12/31 12:04:54;;;;;;;16.05;9.18;;;5.90;99.90;;;;;;5041573;28;20040;-82
2020/12/31 12:07:20;;;;;;;14.98;8.50;;;5.90;99.90;;;;;;5039851;28;20124;-74
2020/12/31 12:09:46;;;;;;;15.43;8.93;;;5.90;99.90;;;;;;5042813;28;20025;-75
2020/12/31 12:12:11;;;;;;;14.85;8.65;;;5.90;99.90;;;;;;5045108;28;20029;-78
2020/12/31 12:14:38;;;;;;;14.25;7.95;;;5.90;99.90;;;;;;5041320;28;20053;-76
2020/12/31 12:17:04;;;;;;;12.00;7.13;;;5.90;99.90;;;;;;5047972;28;20027;-76
2020/12/31 12:19:30;;;;;;;13.23;8.35;;;5.90;99.90;;;;;;5048536;28;20112;-79
2020/12/31 12:21:59;;;;;;;11.63;7.57;;;5.90;99.90;;;;;;5046797;28;20037;-79
2020/12/31 12:24:29;;;;;;;10.75;7.03;;;5.90;99.90;;;;;;5050931;28;20474;-79
2020/12/31 12:26:55;;;;;;;12.32;7.35;;;5.90;99.90;;;;;;5042392;28;20021;-75
2020/12/31 12:29:21;;;;;;;11.52;7.70;;;5.80;99.90;;;;;;5047963;28;20035;-80
2020/12/31 12:31:46;;;;;;;11.73;7.60;;;5.80;99.90;;;;;;5039958;28;20075;-78
2020/12/31 12:34:12;;;;;;;10.82;7.25;;;5.80;99.90;;;;;;5039745;28;20484;-75
2020/12/31 12:36:38;;;;;;;10.23;7.13;;;5.90;99.90;;;;;;5045566;28;20037;-75
2020/12/31 12:39:06;;;;;;;8.55;6.18;;;6.00;99.90;;;;;;5044251;28;20033;-78
2020/12/31 12:41:32;;;;;;;8.40;6.47;;;6.00;99.90;;;;;;5046719;28;20025;-76
2020/12/31 12:43:58;;;;;;;11.48;7.78;;;6.00;99.90;;;;;;5044499;28;20059;-77
2020/12/31 12:46:24;;;;;;;13.32;9.15;;;6.00;99.90;;;;;;5046265;28;20485;-79
2020/12/31 12:48:49;;;;;;;12.57;8.45;;;6.10;99.90;;;;;;5048126;28;20128;-80
2020/12/31 12:51:15;;;;;;;12.57;8.30;;;6.10;99.90;;;;;;5039410;28;20128;-75